Time;durP1;ratioP1;P1;durP2;ratioP2;P2;SDS_P1;SDS_P2;PMS_P1;PMS_P2;Temp;Humidity;BMP_temperature;BMP_pressure;BME280_temperature;BME280_humidity;BME280_pressure;Samples;Min_cycle;Max_cycle;Signal;HPM_P1;HPM_P2
2023/02/21 02:14:13;;;;;;;;;;;;;;;;;;1031890;28;20041;-17
2023/02/21 02:14:49;;;;;;;12.73;5.88;;;;;;;;;;1031578;28;21250;-16
2023/02/21 02:15:20;;;;;;;15.15;7.20;;;;;;;;;;1032595;28;20584;-18
2023/02/21 02:15:50;;;;;;;24.42;6.55;;;;;;;;;;1034005;28;20030;-18
2023/02/21 02:16:39;;;;;;;26.33;5.72;;;;;;;;;;1030048;28;20557;-17
2023/02/21 02:17:28;;;;;;;42.20;8.10;;;;;;;;;;1031647;28;20125;-16
2023/02/21 02:18:08;;;;;;;20.38;7.20;;;;;;;;;;1031540;28;20181;-16
2023/02/21 02:18:47;;;;;;;33.17;10.18;;;;;;;;;;1036912;28;20168;-18
2023/02/21 02:19:21;;;;;;;44.25;9.75;;;;;;;;;;1036411;28;20029;-17
2023/02/21 02:19:58;;;;;;;15.00;8.88;;;;;;;;;;1035897;28;20118;-15
2023/02/21 02:20:29;;;;;;;35.60;7.35;;;;;;;;;;1033427;28;20022;-18
2023/02/21 02:21:15;;;;;;;14.85;7.78;;;;;;;;;;1036035;28;20504;-17
2023/02/21 02:21:49;;;;;;;41.70;7.40;;;;;;;;;;1036653;28;20080;-20
2023/02/21 02:22:39;;;;;;;27.70;6.60;;;;;;;;;;1036110;28;20473;-21
2023/02/21 02:23:24;;;;;;;21.48;10.32;;;;;;;;;;1036404;28;20115;-18
2023/02/21 02:24:13;;;;;;;47.53;9.55;;;;;;;;;;1035049;28;20168;-17
2023/02/21 02:24:56;;;;;;;15.45;8.38;;;;;;;;;;1034224;28;20092;-17
2023/02/21 02:25:45;;;;;;;11.70;6.75;;;;;;;;;;1032871;28;20025;-16
2023/02/21 02:26:32;;;;;;;18.92;7.93;;;;;;;;;;1035990;28;20447;-17
2023/02/21 02:27:15;;;;;;;20.90;6.40;;;;;;;;;;1033806;28;20089;-20
2023/02/21 02:27:45;;;;;;;15.20;6.50;;;;;;;;;;1034352;28;20032;-17
2023/02/21 02:28:25;;;;;;;14.90;7.22;;;;;;;;;;1035706;28;20032;-17
2023/02/21 02:29:14;;;;;;;19.45;7.28;;;;;;;;;;1036501;28;20045;-18
2023/02/21 02:29:45;;;;;;;27.00;9.70;;;;;;;;;;1035264;28;20628;-17
2023/02/21 02:30:50;;;;;;;20.95;7.95;;;;;;;;;;1036159;28;20030;-17
2023/02/21 02:31:21;;;;;;;9.30;6.65;;;;;;;;;;1019291;29;20032;-18
2023/02/21 02:31:58;;;;;;;19.50;8.98;;;;;;;;;;1017763;29;20133;-17
2023/02/21 02:32:44;;;;;;;34.70;6.65;;;;;;;;;;1018636;29;20034;-16
2023/02/21 02:33:14;;;;;;;16.65;7.60;;;;;;;;;;1018891;29;20031;-18
2023/02/21 02:33:46;;;;;;;34.42;8.98;;;;;;;;;;1018918;29;20020;-17
2023/02/21 02:34:25;;;;;;;25.00;8.10;;;;;;;;;;1035692;28;20029;-18
2023/02/21 02:35:12;;;;;;;15.95;9.20;;;;;;;;;;1030110;28;20118;-16
2023/02/21 02:36:01;;;;;;;21.75;7.10;;;;;;;;;;1031734;28;20030;-19
2023/02/21 02:37:04;;;;;;;29.92;8.02;;;;;;;;;;1032525;28;20022;-16
2023/02/21 02:37:53;;;;;;;15.27;8.43;;;;;;;;;;1015837;29;20138;-16
2023/02/21 02:38:29;;;;;;;26.02;8.32;;;;;;;;;;1017999;29;20028;-17
2023/02/21 02:39:22;;;;;;;29.70;8.70;;;;;;;;;;1035613;28;20501;-15
2023/02/21 02:40:02;;;;;;;14.63;7.55;;;;;;;;;;1034848;28;20324;-17
2023/02/21 02:40:42;;;;;;;14.75;6.93;;;;;;;;;;1036254;28;20373;-17
2023/02/21 02:41:36;;;;;;;20.73;8.85;;;;;;;;;;1033919;28;20463;-17
2023/02/21 02:42:20;;;;;;;24.45;5.45;;;;;;;;;;1028191;28;20121;-18
2023/02/21 02:43:06;;;;;;;32.60;5.53;;;;;;;;;;1036498;28;20029;-16
2023/02/21 02:43:42;;;;;;;9.98;6.05;;;;;;;;;;1031185;28;20057;-17
2023/02/21 02:44:24;;;;;;;26.95;7.60;;;;;;;;;;1032319;28;20034;-16
2023/02/21 02:45:10;;;;;;;24.67;8.00;;;;;;;;;;1033195;28;20037;-16
2023/02/21 02:45:50;;;;;;;12.77;6.53;;;;;;;;;;1030226;28;20125;-18
2023/02/21 02:46:27;;;;;;;30.50;9.50;;;;;;;;;;1031278;28;20034;-16
2023/02/21 02:46:59;;;;;;;23.73;8.20;;;;;;;;;;1032976;28;20034;-16
2023/02/21 02:47:33;;;;;;;20.35;7.05;;;;;;;;;;1029219;28;20117;-16
2023/02/21 02:48:20;;;;;;;21.60;6.40;;;;;;;;;;1032194;28;20033;-17
2023/02/21 02:49:00;;;;;;;30.77;7.32;;;;;;;;;;1033251;28;20014;-16
2023/02/21 02:49:32;;;;;;;18.15;5.90;;;;;;;;;;1034924;28;20083;-18
2023/02/21 02:50:05;;;;;;;15.00;6.50;;;;;;;;;;1035791;28;20030;-16
2023/02/21 02:50:38;;;;;;;29.35;9.15;;;;;;;;;;1032822;28;20569;-16
2023/02/21 02:51:13;;;;;;;37.08;10.55;;;;;;;;;;1032756;28;20720;-17
2023/02/21 02:51:44;;;;;;;24.83;6.90;;;;;;;;;;1030411;28;20034;-14
2023/02/21 02:52:15;;;;;;;15.07;5.10;;;;;;;;;;1027881;28;20049;-17
2023/02/21 02:52:53;;;;;;;14.23;7.25;;;;;;;;;;1030982;28;20593;-14
2023/02/21 02:53:28;;;;;;;6.00;4.25;;;;;;;;;;1036114;28;20580;-17
2023/02/21 02:54:00;;;;;;;12.98;6.53;;;;;;;;;;1029925;28;20062;-16
2023/02/21 02:54:33;;;;;;;24.15;9.60;;;;;;;;;;1030547;28;20030;-16
2023/02/21 02:55:20;;;;;;;16.48;8.27;;;;;;;;;;1024810;28;20033;-17
2023/02/21 02:56:12;;;;;;;9.82;6.10;;;;;;;;;;1029676;28;20033;-17
2023/02/21 02:56:54;;;;;;;16.60;6.85;;;;;;;;;;1028821;28;20030;-16
2023/02/21 02:57:37;;;;;;;30.27;9.32;;;;;;;;;;1026377;28;20511;-17
2023/02/21 02:58:09;;;;;;;17.63;9.80;;;;;;;;;;1018972;28;20276;-16
2023/02/21 02:59:16;;;;;;;17.55;8.25;;;;;;;;;;1025643;28;20038;-18
2023/02/21 02:59:47;;;;;;;32.65;9.38;;;;;;;;;;1015102;29;20059;-18
2023/02/21 03:00:20;;;;;;;28.27;9.38;;;;;;;;;;1016300;29;20032;-18
2023/02/21 03:01:05;;;;;;;18.52;7.20;;;;;;;;;;1017741;28;20669;-16
2023/02/21 03:01:44;;;;;;;21.15;8.52;;;;;;;;;;1018829;29;20039;-18
2023/02/21 03:02:42;;;;;;;38.25;7.20;;;;;;;;;;1017096;28;20062;-19
2023/02/21 03:03:48;;;;;;;25.98;10.93;;;;;;;;;;1011420;29;20622;-16
2023/02/21 03:04:30;;;;;;;30.42;9.32;;;;;;;;;;1002183;29;20625;-18
2023/02/21 03:05:11;;;;;;;18.80;9.40;;;;;;;;;;1005596;29;20032;-18
2023/02/21 03:05:50;;;;;;;20.52;7.53;;;;;;;;;;1023618;28;20520;-14
2023/02/21 03:06:25;;;;;;;21.25;8.57;;;;;;;;;;1023267;28;20523;-16
2023/02/21 03:07:16;;;;;;;20.23;7.53;;;;;;;;;;1021580;28;20038;-17
2023/02/21 03:07:50;;;;;;;15.18;5.15;;;;;;;;;;1024921;28;20022;-18
2023/02/21 03:08:40;;;;;;;32.90;7.57;;;;;;;;;;1032664;28;20030;-18
2023/02/21 03:09:19;;;;;;;9.02;5.50;;;;;;;;;;1036750;28;20033;-15
2023/02/21 03:09:59;;;;;;;24.20;6.85;;;;;;;;;;1036219;28;20029;-16
2023/02/21 03:10:32;;;;;;;36.83;8.25;;;;;;;;;;1031595;28;20041;-17
2023/02/21 03:11:18;;;;;;;19.85;5.97;;;;;;;;;;1027685;28;20042;-18
2023/02/21 03:12:15;;;;;;;18.45;6.13;;;;;;;;;;1026342;28;20038;-17
2023/02/21 03:13:06;;;;;;;15.40;6.82;;;;;;;;;;1029558;28;20034;-18
2023/02/21 03:13:49;;;;;;;26.30;7.65;;;;;;;;;;1014237;28;20039;-15
2023/02/21 03:14:23;;;;;;;15.52;6.55;;;;;;;;;;1032619;28;20026;-17
2023/02/21 03:15:01;;;;;;;17.42;6.15;;;;;;;;;;1024647;28;20479;-17
2023/02/21 03:15:45;;;;;;;19.10;7.22;;;;;;;;;;1027664;28;20027;-18
2023/02/21 03:16:35;;;;;;;23.20;8.10;;;;;;;;;;1030647;28;20473;-19
2023/02/21 03:17:10;;;;;;;24.77;7.57;;;;;;;;;;1031145;28;20506;-16
2023/02/21 03:17:42;;;;;;;21.92;8.10;;;;;;;;;;1028578;28;20037;-16
2023/02/21 03:18:27;;;;;;;31.13;9.52;;;;;;;;;;1028634;28;20035;-17
2023/02/21 03:19:04;;;;;;;29.25;10.32;;;;;;;;;;1027753;28;20038;-17
2023/02/21 03:19:37;;;;;;;33.90;12.00;;;;;;;;;;1029629;28;20063;-16
2023/02/21 03:20:13;;;;;;;22.65;8.95;;;;;;;;;;1031826;28;20030;-16
2023/02/21 03:20:50;;;;;;;26.98;12.05;;;;;;;;;;1028497;28;20143;-16
2023/02/21 03:21:29;;;;;;;31.30;13.48;;;;;;;;;;1031089;28;20466;-16
2023/02/21 03:22:05;;;;;;;43.55;11.65;;;;;;;;;;1024274;28;20017;-16
2023/02/21 03:22:43;;;;;;;40.10;14.35;;;;;;;;;;1029391;28;20374;-16
2023/02/21 03:23:19;;;;;;;52.58;13.75;;;;;;;;;;1028885;28;20493;-17
2023/02/21 03:23:55;;;;;;;26.25;10.38;;;;;;;;;;1020600;28;20172;-16
2023/02/21 03:24:30;;;;;;;36.17;13.50;;;;;;;;;;1021921;28;20031;-17
2023/02/21 03:25:14;;;;;;;26.33;10.65;;;;;;;;;;1025705;28;20034;-16
2023/02/21 03:25:51;;;;;;;32.35;10.20;;;;;;;;;;1027097;28;20036;-15
2023/02/21 03:26:27;;;;;;;33.00;10.52;;;;;;;;;;1032825;28;20371;-17
2023/02/21 03:27:04;;;;;;;61.15;10.55;;;;;;;;;;1027749;28;20487;-17
2023/02/21 03:27:36;;;;;;;26.08;10.35;;;;;;;;;;1028511;28;20034;-15
2023/02/21 03:28:08;;;;;;;48.70;11.38;;;;;;;;;;1028006;28;20172;-15
2023/02/21 03:28:43;;;;;;;41.88;12.65;;;;;;;;;;1024726;28;20062;-16
2023/02/21 03:29:17;;;;;;;27.65;11.30;;;;;;;;;;1024249;28;20552;-16
2023/02/21 03:29:48;;;;;;;34.08;13.95;;;;;;;;;;1022700;28;20065;-16
2023/02/21 03:30:22;;;;;;;30.73;11.00;;;;;;;;;;1028841;28;20393;-19
2023/02/21 03:30:59;;;;;;;42.70;13.75;;;;;;;;;;1029344;28;20101;-16
2023/02/21 03:31:38;;;;;;;33.15;12.07;;;;;;;;;;1031839;28;20023;-17
2023/02/21 03:32:55;;;;;;;54.28;10.70;;;;;;;;;;1026406;28;20027;-20
2023/02/21 03:33:27;;;;;;;25.23;11.40;;;;;;;;;;1025615;28;20460;-18
2023/02/21 03:34:00;;;;;;;23.30;12.60;;;;;;;;;;1023035;28;20134;-18
2023/02/21 03:34:30;;;;;;;29.17;11.70;;;;;;;;;;1026950;28;20037;-18
2023/02/21 03:35:02;;;;;;;32.78;11.63;;;;;;;;;;1027321;28;20561;-16
2023/02/21 03:35:34;;;;;;;33.08;11.68;;;;;;;;;;1031092;28;20485;-18
2023/02/21 03:36:05;;;;;;;32.47;14.32;;;;;;;;;;1034934;28;20443;-16
2023/02/21 03:36:37;;;;;;;34.00;13.30;;;;;;;;;;1034260;28;20356;-17
2023/02/21 03:37:29;;;;;;;46.15;12.02;;;;;;;;;;1033462;28;20017;-19
2023/02/21 03:38:04;;;;;;;45.40;12.57;;;;;;;;;;1034933;28;20597;-16
2023/02/21 03:38:38;;;;;;;30.73;12.88;;;;;;;;;;1029118;28;20030;-15
2023/02/21 03:39:09;;;;;;;31.92;11.52;;;;;;;;;;1031486;28;20067;-18
2023/02/21 03:39:40;;;;;;;34.70;12.82;;;;;;;;;;1031261;28;20114;-17
2023/02/21 03:40:25;;;;;;;51.90;16.92;;;;;;;;;;1031440;28;20052;-18
2023/02/21 03:41:01;;;;;;;63.78;16.27;;;;;;;;;;1030590;28;20131;-16
2023/02/21 03:41:32;;;;;;;47.28;15.45;;;;;;;;;;1029608;28;20438;-18
2023/02/21 03:42:05;;;;;;;33.67;14.57;;;;;;;;;;1031393;28;20033;-16
2023/02/21 03:42:39;;;;;;;33.83;16.13;;;;;;;;;;1024217;28;20057;-19
2023/02/21 03:43:10;;;;;;;38.08;13.60;;;;;;;;;;1022762;28;20022;-16
2023/02/21 03:43:43;;;;;;;40.92;13.38;;;;;;;;;;1032213;28;20513;-17
2023/02/21 03:44:16;;;;;;;44.40;13.75;;;;;;;;;;1026411;28;20026;-14
2023/02/21 03:44:48;;;;;;;28.75;12.55;;;;;;;;;;1031530;28;20049;-15
2023/02/21 03:45:19;;;;;;;27.20;12.95;;;;;;;;;;1031473;28;20042;-17
2023/02/21 03:45:52;;;;;;;20.38;12.07;;;;;;;;;;1026671;28;20712;-16
2023/02/21 03:46:44;;;;;;;48.22;12.80;;;;;;;;;;1030671;28;20054;-18
2023/02/21 03:47:16;;;;;;;32.65;14.52;;;;;;;;;;1019597;28;20264;-17
2023/02/21 03:47:47;;;;;;;35.47;16.02;;;;;;;;;;1019849;28;20062;-16
2023/02/21 03:48:19;;;;;;;28.10;13.63;;;;;;;;;;1026038;28;20038;-16
2023/02/21 03:48:51;;;;;;;23.95;11.68;;;;;;;;;;1019917;28;20029;-16
2023/02/21 03:49:23;;;;;;;27.17;12.50;;;;;;;;;;1020362;28;20023;-16
2023/02/21 03:49:56;;;;;;;33.15;12.45;;;;;;;;;;1017573;29;20027;-18
2023/02/21 03:50:29;;;;;;;25.83;11.00;;;;;;;;;;1017711;29;20054;-15
2023/02/21 03:51:00;;;;;;;32.38;11.73;;;;;;;;;;1023309;28;20038;-15
2023/02/21 03:51:31;;;;;;;48.03;13.65;;;;;;;;;;1020845;28;20030;-15
2023/02/21 03:52:11;;;;;;;51.83;12.07;;;;;;;;;;1015550;29;20032;-16
2023/02/21 03:52:53;;;;;;;41.88;12.32;;;;;;;;;;1017328;29;20538;-16
2023/02/21 03:53:36;;;;;;;24.60;11.93;;;;;;;;;;1015653;29;20172;-17
2023/02/21 03:54:17;;;;;;;28.60;11.10;;;;;;;;;;1019941;29;20087;-15
2023/02/21 03:54:49;;;;;;;33.30;12.77;;;;;;;;;;1020537;28;20122;-17
2023/02/21 03:55:21;;;;;;;40.92;13.85;;;;;;;;;;1023486;28;20073;-18
2023/02/21 03:55:52;;;;;;;43.80;15.48;;;;;;;;;;1023819;28;20722;-16
2023/02/21 03:56:24;;;;;;;39.65;11.00;;;;;;;;;;1023536;28;20026;-16
2023/02/21 03:56:56;;;;;;;32.85;14.15;;;;;;;;;;1026639;28;20027;-18
2023/02/21 03:57:26;;;;;;;54.53;12.93;;;;;;;;;;1027370;28;20851;-16
2023/02/21 03:57:58;;;;;;;41.72;17.33;;;;;;;;;;1025880;28;20035;-16
2023/02/21 03:58:30;;;;;;;44.45;14.00;;;;;;;;;;1028374;28;20034;-18
2023/02/21 03:59:02;;;;;;;32.75;15.93;;;;;;;;;;1026887;28;20038;-19
2023/02/21 03:59:33;;;;;;;36.17;17.60;;;;;;;;;;1026111;28;20051;-14
2023/02/21 04:00:05;;;;;;;52.35;16.05;;;;;;;;;;1021120;28;20035;-16
2023/02/21 04:00:36;;;;;;;45.47;17.20;;;;;;;;;;1021188;28;20042;-16
2023/02/21 04:01:10;;;;;;;45.30;15.38;;;;;;;;;;1022266;28;21453;-16
2023/02/21 04:01:42;;;;;;;28.45;14.85;;;;;;;;;;1020053;28;20752;-17
2023/02/21 04:02:13;;;;;;;47.08;14.73;;;;;;;;;;1023335;28;20030;-19
2023/02/21 04:02:46;;;;;;;50.67;15.35;;;;;;;;;;1019820;29;20015;-18
2023/02/21 04:03:18;;;;;;;74.68;16.83;;;;;;;;;;1017903;28;20458;-17
2023/02/21 04:03:53;;;;;;;41.53;14.85;;;;;;;;;;1019376;29;20028;-17
2023/02/21 04:04:56;;;;;;;45.15;17.85;;;;;;;;;;1014876;29;20013;-15
2023/02/21 04:05:35;;;;;;;27.40;13.00;;;;;;;;;;1014225;29;20516;-15
2023/02/21 04:06:11;;;;;;;33.20;14.95;;;;;;;;;;1019625;28;20145;-18
2023/02/21 04:07:04;;;;;;;32.97;15.65;;;;;;;;;;1016864;29;20024;-18
2023/02/21 04:08:16;;;;;;;45.22;14.73;;;;;;;;;;1016236;29;20028;-17
2023/02/21 04:09:57;;;;;;;40.58;14.45;;;;;;;;;;1010027;29;20149;-17
2023/02/21 04:10:56;;;;;;;16.80;10.77;;;;;;;;;;992858;29;20038;-17
2023/02/21 04:12:14;;;;;;;47.40;15.23;;;;;;;;;;992101;29;20427;-18
2023/02/21 04:13:22;;;;;;;45.70;10.80;;;;;;;;;;998649;29;20125;-17
2023/02/21 04:14:20;;;;;;;48.20;11.32;;;;;;;;;;990581;29;20073;-16
2023/02/21 04:15:14;;;;;;;49.47;12.68;;;;;;;;;;991374;29;20765;-17
2023/02/21 04:16:11;;;;;;;29.23;10.57;;;;;;;;;;985099;29;20062;-18
2023/02/21 04:16:45;;;;;;;41.30;15.82;;;;;;;;;;986201;29;20112;-16
2023/02/21 04:17:18;;;;;;;25.10;10.70;;;;;;;;;;984492;29;20100;-16
2023/02/21 04:17:51;;;;;;;29.52;10.93;;;;;;;;;;986695;29;20633;-16
2023/02/21 04:18:22;;;;;;;37.67;14.13;;;;;;;;;;985384;29;20515;-16
2023/02/21 04:18:57;;;;;;;13.07;8.63;;;;;;;;;;987979;29;20035;-19
2023/02/21 04:19:30;;;;;;;39.90;12.25;;;;;;;;;;984341;30;20225;-16
2023/02/21 04:20:05;;;;;;;36.22;9.95;;;;;;;;;;981210;30;20038;-17
2023/02/21 04:20:38;;;;;;;24.02;10.82;;;;;;;;;;983671;30;20032;-16
2023/02/21 04:21:11;;;;;;;27.15;9.23;;;;;;;;;;984574;29;20039;-16
2023/02/21 04:21:47;;;;;;;27.48;10.65;;;;;;;;;;984993;30;20405;-15
2023/02/21 04:22:23;;;;;;;9.97;6.23;;;;;;;;;;984715;30;20573;-17
2023/02/21 04:22:56;;;;;;;16.13;9.13;;;;;;;;;;984057;30;20261;-16
2023/02/21 04:23:41;;;;;;;51.22;9.38;;;;;;;;;;984722;30;20914;-16
2023/02/21 04:24:16;;;;;;;23.48;9.60;;;;;;;;;;982861;30;20118;-18
2023/02/21 04:24:48;;;;;;;15.98;8.27;;;;;;;;;;981699;30;20107;-17
2023/02/21 04:25:31;;;;;;;23.55;8.75;;;;;;;;;;982347;30;20050;-17
2023/02/21 04:26:06;;;;;;;25.55;7.05;;;;;;;;;;984784;29;20523;-18
2023/02/21 04:26:40;;;;;;;19.85;8.23;;;;;;;;;;985751;29;20506;-18
2023/02/21 04:27:40;;;;;;;17.70;7.88;;;;;;;;;;984032;30;20032;-16
2023/02/21 04:28:39;;;;;;;15.73;5.00;;;;;;;;;;990876;29;20027;-17
2023/02/21 04:30:15;;;;;;;21.50;6.88;;;;;;;;;;989224;29;20039;-18
2023/02/21 04:30:54;;;;;;;10.93;5.50;;;;;;;;;;981035;30;20132;-19
2023/02/21 04:31:28;;;;;;;58.95;8.35;;;;;;;;;;978262;30;20108;-16
2023/02/21 04:32:27;;;;;;;12.90;8.48;;;;;;;;;;982895;30;20032;-19
2023/02/21 04:33:03;;;;;;;21.70;6.97;;;;;;;;;;977916;30;21237;-18
2023/02/21 04:33:43;;;;;;;19.90;5.55;;;;;;;;;;977430;30;20032;-18
2023/02/21 04:34:21;;;;;;;10.27;5.05;;;;;;;;;;978426;30;20028;-16
2023/02/21 04:34:56;;;;;;;24.15;6.35;;;;;;;;;;980587;30;20058;-17
2023/02/21 04:35:30;;;;;;;5.45;2.83;;;;;;;;;;980917;30;20142;-18
2023/02/21 04:36:30;;;;;;;17.33;4.88;;;;;;;;;;978006;30;20051;-18
2023/02/21 04:37:26;;;;;;;26.58;4.20;;;;;;;;;;978642;30;20039;-18
2023/02/21 04:38:12;;;;;;;9.45;3.67;;;;;;;;;;984196;30;20035;-19
2023/02/21 04:39:07;;;;;;;12.23;6.60;;;;;;;;;;984137;30;20028;-17
2023/02/21 04:40:10;;;;;;;12.13;4.93;;;;;;;;;;980243;30;20036;-21
2023/02/21 04:40:44;;;;;;;26.50;4.50;;;;;;;;;;977729;30;20468;-19
2023/02/21 04:42:57;;;;;;;9.85;5.70;;;;;;;;;;978675;30;20040;-17
2023/02/21 04:43:48;;;;;;;8.98;3.22;;;;;;;;;;969358;30;20531;-17
2023/02/21 04:44:21;;;;;;;13.70;5.20;;;;;;;;;;967431;30;20042;-17
2023/02/21 04:44:59;;;;;;;10.10;5.55;;;;;;;;;;968027;30;20065;-16
2023/02/21 04:45:38;;;;;;;9.40;3.45;;;;;;;;;;976583;30;20464;-18
2023/02/21 04:46:19;;;;;;;13.52;4.25;;;;;;;;;;978554;30;20076;-19
2023/02/21 04:47:02;;;;;;;21.85;6.25;;;;;;;;;;979682;30;20583;-17
2023/02/21 04:48:01;;;;;;;12.02;3.60;;;;;;;;;;981566;30;20051;-17
2023/02/21 04:48:42;;;;;;;6.55;3.25;;;;;;;;;;981258;30;20040;-19
2023/02/21 04:49:17;;;;;;;10.52;5.45;;;;;;;;;;968773;30;20468;-18
2023/02/21 04:50:18;;;;;;;18.30;3.90;;;;;;;;;;970314;30;20069;-18
2023/02/21 04:50:51;;;;;;;5.75;2.90;;;;;;;;;;969826;30;20485;-16
2023/02/21 04:51:26;;;;;;;9.25;3.67;;;;;;;;;;980922;30;20054;-18
2023/02/21 04:51:59;;;;;;;6.18;3.03;;;;;;;;;;980146;30;20024;-19
2023/02/21 04:52:32;;;;;;;10.05;3.63;;;;;;;;;;982129;30;20066;-18
2023/02/21 04:53:08;;;;;;;10.82;5.35;;;;;;;;;;982436;30;20040;-19
2023/02/21 04:53:41;;;;;;;17.13;7.43;;;;;;;;;;981262;30;20183;-19
2023/02/21 04:54:17;;;;;;;21.17;6.88;;;;;;;;;;969036;30;20044;-18
2023/02/21 04:54:47;;;;;;;9.93;5.60;;;;;;;;;;975320;30;20045;-19
2023/02/21 04:55:21;;;;;;;13.50;7.40;;;;;;;;;;980862;30;20042;-20
2023/02/21 04:55:56;;;;;;;11.40;6.28;;;;;;;;;;986987;29;20586;-17
2023/02/21 04:56:31;;;;;;;12.88;4.72;;;;;;;;;;991352;29;20088;-19
2023/02/21 04:57:06;;;;;;;19.10;3.85;;;;;;;;;;990775;29;20439;-16
2023/02/21 04:57:40;;;;;;;7.90;4.53;;;;;;;;;;984669;29;20031;-16
2023/02/21 04:58:12;;;;;;;11.68;4.05;;;;;;;;;;989696;29;21522;-17
2023/02/21 04:58:46;;;;;;;12.52;5.88;;;;;;;;;;992498;29;20435;-18
2023/02/21 04:59:18;;;;;;;9.23;5.38;;;;;;;;;;990522;29;20119;-18
2023/02/21 04:59:56;;;;;;;13.32;5.47;;;;;;;;;;988978;29;20091;-16
2023/02/21 05:00:29;;;;;;;;;;;;;;;;;;988898;29;20137;-19
2023/02/21 05:01:03;;;;;;;14.30;7.72;;;;;;;;;;990979;29;19913;-18
2023/02/21 05:01:34;;;;;;;6.57;4.55;;;;;;;;;;993538;29;20039;-19
2023/02/21 05:02:09;;;;;;;10.23;5.13;;;;;;;;;;992210;29;20118;-19
2023/02/21 05:02:45;;;;;;;7.63;4.28;;;;;;;;;;987092;29;20492;-16
2023/02/21 05:03:39;;;;;;;14.25;6.20;;;;;;;;;;988315;29;21453;-19
2023/02/21 05:04:45;;;;;;;10.57;5.00;;;;;;;;;;990517;29;20039;-17
2023/02/21 05:05:24;;;;;;;14.25;5.22;;;;;;;;;;991553;29;20030;-20
2023/02/21 05:05:56;;;;;;;16.05;6.78;;;;;;;;;;988446;29;20035;-19
2023/02/21 05:06:29;;;;;;;23.08;8.40;;;;;;;;;;991830;29;20080;-18
2023/02/21 05:07:03;;;;;;;15.02;5.93;;;;;;;;;;994323;29;20041;-20
2023/02/21 05:07:38;;;;;;;18.60;6.10;;;;;;;;;;995093;29;20038;-20
2023/02/21 05:08:11;;;;;;;10.13;4.68;;;;;;;;;;994532;29;20491;-18
2023/02/21 05:08:44;;;;;;;11.45;4.40;;;;;;;;;;999122;29;20045;-17
2023/02/21 05:09:15;;;;;;;17.27;4.28;;;;;;;;;;992607;29;20235;-19
2023/02/21 05:09:47;;;;;;;8.80;4.72;;;;;;;;;;996082;29;20157;-17
2023/02/21 05:10:17;;;;;;;7.10;3.65;;;;;;;;;;997849;29;20026;-17
2023/02/21 05:10:50;;;;;;;15.07;6.10;;;;;;;;;;998494;29;20061;-18
2023/02/21 05:11:22;;;;;;;9.88;4.90;;;;;;;;;;994203;29;20105;-17
2023/02/21 05:11:54;;;;;;;9.65;3.20;;;;;;;;;;998420;29;20041;-17
2023/02/21 05:12:27;;;;;;;13.80;5.78;;;;;;;;;;996739;29;20045;-19
2023/02/21 05:12:59;;;;;;;10.20;5.25;;;;;;;;;;994899;29;20417;-18
2023/02/21 05:13:30;;;;;;;11.10;3.97;;;;;;;;;;994567;29;20026;-18
2023/02/21 05:14:03;;;;;;;9.48;4.45;;;;;;;;;;995534;29;20452;-17
2023/02/21 05:14:39;;;;;;;12.82;5.05;;;;;;;;;;1001304;29;20097;-18
2023/02/21 05:15:17;;;;;;;9.95;4.32;;;;;;;;;;1000836;29;20061;-19
2023/02/21 05:15:59;;;;;;;9.75;4.68;;;;;;;;;;998596;29;20022;-19
2023/02/21 05:16:35;;;;;;;7.32;4.63;;;;;;;;;;998457;29;20144;-18
2023/02/21 05:17:17;;;;;;;9.18;5.07;;;;;;;;;;1002101;29;20041;-18
2023/02/21 05:17:55;;;;;;;10.02;4.95;;;;;;;;;;1003512;29;21538;-16
2023/02/21 05:18:36;;;;;;;23.17;7.55;;;;;;;;;;1008277;29;20211;-18
2023/02/21 05:19:26;;;;;;;27.80;9.38;;;;;;;;;;1013860;29;20032;-19
2023/02/21 05:19:59;;;;;;;30.58;11.30;;;;;;;;;;1009769;29;20028;-18
2023/02/21 05:20:35;;;;;;;27.50;11.82;;;;;;;;;;1013693;29;20032;-16
2023/02/21 05:21:09;;;;;;;29.08;13.85;;;;;;;;;;1017391;29;20148;-18
2023/02/21 05:21:43;;;;;;;38.95;13.70;;;;;;;;;;1016082;29;20043;-17
2023/02/21 05:22:19;;;;;;;39.25;14.80;;;;;;;;;;1017223;29;20055;-18
2023/02/21 05:22:49;;;;;;;28.13;13.23;;;;;;;;;;1017934;29;20495;-18
2023/02/21 05:23:34;;;;;;;53.90;17.45;;;;;;;;;;1015781;29;20020;-16
2023/02/21 05:24:17;;;;;;;35.10;16.75;;;;;;;;;;1021087;28;20042;-17
2023/02/21 05:25:10;;;;;;;47.40;17.75;;;;;;;;;;1023596;28;20034;-17
2023/02/21 05:25:44;;;;;;;39.58;18.60;;;;;;;;;;1012365;29;20033;-18
2023/02/21 05:26:31;;;;;;;32.65;16.92;;;;;;;;;;1015564;29;20566;-19
2023/02/21 05:27:14;;;;;;;30.98;13.55;;;;;;;;;;1020866;29;20278;-18
2023/02/21 05:27:53;;;;;;;31.08;12.80;;;;;;;;;;1026912;28;20214;-17
2023/02/21 05:28:44;;;;;;;31.60;13.07;;;;;;;;;;1026046;28;20314;-17
2023/02/21 05:29:18;;;;;;;35.03;12.85;;;;;;;;;;1025211;28;20023;-18
2023/02/21 05:29:58;;;;;;;29.80;12.05;;;;;;;;;;1018190;29;20112;-17
2023/02/21 05:31:01;;;;;;;32.85;12.43;;;;;;;;;;1018980;29;20146;-17
2023/02/21 05:32:12;;;;;;;35.83;13.75;;;;;;;;;;1006035;29;20048;-16
2023/02/21 05:33:00;;;;;;;24.45;10.00;;;;;;;;;;1025324;28;20887;-20
2023/02/21 05:33:37;;;;;;;32.63;10.48;;;;;;;;;;1021519;28;20031;-18
2023/02/21 05:34:18;;;;;;;34.95;13.27;;;;;;;;;;1021740;28;20023;-19
2023/02/21 05:34:51;;;;;;;35.45;14.32;;;;;;;;;;1020120;28;20030;-16
2023/02/21 05:35:24;;;;;;;42.83;14.48;;;;;;;;;;1013691;28;20119;-16
2023/02/21 05:35:56;;;;;;;30.83;13.35;;;;;;;;;;1018280;29;20098;-17
2023/02/21 05:36:30;;;;;;;31.45;12.20;;;;;;;;;;1012851;29;20024;-19
2023/02/21 05:37:03;;;;;;;29.60;11.25;;;;;;;;;;1011181;29;20066;-17
2023/02/21 05:37:36;;;;;;;34.03;12.95;;;;;;;;;;1017243;29;20028;-18
2023/02/21 05:38:09;;;;;;;30.45;12.07;;;;;;;;;;1018420;28;20028;-16
2023/02/21 05:38:48;;;;;;;19.17;9.18;;;;;;;;;;1021036;28;20035;-15
2023/02/21 05:39:23;;;;;;;28.77;11.30;;;;;;;;;;1020997;28;20058;-18
2023/02/21 05:39:57;;;;;;;41.10;12.05;;;;;;;;;;1017149;29;20838;-16
2023/02/21 05:40:29;;;;;;;30.90;14.40;;;;;;;;;;1016845;29;20027;-16
2023/02/21 05:41:06;;;;;;;37.30;13.07;;;;;;;;;;1020671;28;20015;-17
2023/02/21 05:41:39;;;;;;;42.72;14.10;;;;;;;;;;1020563;28;20138;-16
2023/02/21 05:42:14;;;;;;;31.13;13.00;;;;;;;;;;1021745;28;20138;-18
2023/02/21 05:43:16;;;;;;;26.80;11.57;;;;;;;;;;1022483;28;20013;-16
2023/02/21 05:44:15;;;;;;;34.17;12.15;;;;;;;;;;1021421;28;20030;-16
2023/02/21 05:45:15;;;;;;;23.80;10.68;;;;;;;;;;1023079;29;20668;-18
2023/02/21 05:46:07;;;;;;;23.75;11.98;;;;;;;;;;1023045;29;20019;-16
2023/02/21 05:48:45;;;;;;;26.75;11.95;;;;;;;;;;1016416;29;20107;-18
2023/02/21 05:49:37;;;;;;;50.58;18.90;;;;;;;;;;1026196;28;20696;-16
2023/02/21 05:50:10;;;;;;;41.08;16.58;;;;;;;;;;1026348;28;20038;-19
2023/02/21 05:50:47;;;;;;;28.98;11.68;;;;;;;;;;1023266;28;20532;-17
2023/02/21 05:51:19;;;;;;;41.08;13.70;;;;;;;;;;1026251;28;20035;-19
2023/02/21 05:51:59;;;;;;;30.20;14.07;;;;;;;;;;1023401;28;20480;-16
2023/02/21 05:52:44;;;;;;;29.23;12.75;;;;;;;;;;1022378;28;20550;-17
2023/02/21 05:53:32;;;;;;;31.92;10.75;;;;;;;;;;1023228;28;20109;-19
2023/02/21 05:54:20;;;;;;;24.40;11.48;;;;;;;;;;1025977;28;20470;-19
2023/02/21 05:54:52;;;;;;;23.92;12.73;;;;;;;;;;1027059;28;20034;-19
2023/02/21 05:55:25;;;;;;;27.02;12.32;;;;;;;;;;1023111;28;20099;-18
2023/02/21 05:55:59;;;;;;;35.88;13.32;;;;;;;;;;1023304;28;20597;-17
2023/02/21 05:56:38;;;;;;;20.50;10.82;;;;;;;;;;1024563;28;20027;-17
2023/02/21 05:57:11;;;;;;;25.55;11.00;;;;;;;;;;1020869;28;20027;-17
2023/02/21 05:57:44;;;;;;;19.70;9.05;;;;;;;;;;1017291;29;20583;-18
2023/02/21 05:58:18;;;;;;;29.55;13.45;;;;;;;;;;1019236;28;20447;-17
2023/02/21 05:58:50;;;;;;;26.02;12.23;;;;;;;;;;1019630;29;20114;-18
2023/02/21 05:59:22;;;;;;;38.13;11.65;;;;;;;;;;1015453;29;20027;-19
2023/02/21 05:59:55;;;;;;;24.63;9.98;;;;;;;;;;1011320;29;20441;-16
2023/02/21 06:00:29;;;;;;;39.42;13.30;;;;;;;;;;1018148;29;20031;-19
2023/02/21 06:01:01;;;;;;;32.03;15.65;;;;;;;;;;1016243;29;20038;-19
2023/02/21 06:01:33;;;;;;;33.65;13.23;;;;;;;;;;1016273;29;20660;-18
2023/02/21 06:02:06;;;;;;;28.90;10.38;;;;;;;;;;1021011;28;20055;-19
2023/02/21 06:02:38;;;;;;;20.75;10.05;;;;;;;;;;1021144;28;20027;-18
2023/02/21 06:03:26;;;;;;;21.42;8.65;;;;;;;;;;1013566;29;20027;-20
2023/02/21 06:04:00;;;;;;;23.77;10.80;;;;;;;;;;1013788;29;20034;-19
2023/02/21 06:04:41;;;;;;;35.15;9.15;;;;;;;;;;1013061;29;20574;-16
2023/02/21 06:05:24;;;;;;;15.93;7.55;;;;;;;;;;1013602;29;20119;-18
2023/02/21 06:05:57;;;;;;;16.63;9.57;;;;;;;;;;1010757;29;20493;-16
2023/02/21 06:06:30;;;;;;;26.45;12.77;;;;;;;;;;1007492;29;20068;-16
2023/02/21 06:07:03;;;;;;;26.88;8.50;;;;;;;;;;1014214;29;20023;-16
2023/02/21 06:07:35;;;;;;;31.48;10.32;;;;;;;;;;1015312;29;20020;-16
2023/02/21 06:08:07;;;;;;;34.65;10.05;;;;;;;;;;1013000;29;20035;-18
2023/02/21 06:08:46;;;;;;;23.80;11.52;;;;;;;;;;1013310;29;20036;-19
2023/02/21 06:09:20;;;;;;;21.08;10.95;;;;;;;;;;1008943;29;20211;-17
2023/02/21 06:09:52;;;;;;;26.90;8.57;;;;;;;;;;1009751;29;20031;-16